createdAt,value
2019-05-19T00:00:21.880Z,15.90
2019-05-19T00:01:26.138Z,15.90
2019-05-19T00:02:30.903Z,15.90
2019-05-19T00:03:35.121Z,15.90
2019-05-19T00:04:39.900Z,15.90
2019-05-19T00:05:44.157Z,15.90
2019-05-19T00:06:48.934Z,15.90
2019-05-19T00:07:53.149Z,15.90
2019-05-19T00:08:57.930Z,15.90
2019-05-19T00:10:02.187Z,15.80
2019-05-19T00:11:07.111Z,15.80
2019-05-19T00:12:11.731Z,15.80
2019-05-19T00:13:16.506Z,15.80
2019-05-19T00:14:20.718Z,15.80
2019-05-19T00:15:25.486Z,15.70
2019-05-19T00:16:29.743Z,15.80
2019-05-19T00:17:34.528Z,15.70
2019-05-19T00:18:39.041Z,15.70
2019-05-19T00:19:43.817Z,15.70
2019-05-19T00:20:48.040Z,15.70
2019-05-19T00:21:52.859Z,15.70
2019-05-19T00:22:57.079Z,15.70
2019-05-19T00:24:01.855Z,15.70
2019-05-19T00:25:06.078Z,15.70
2019-05-19T00:26:10.889Z,15.70
2019-05-19T00:27:15.098Z,15.60
2019-05-19T00:28:19.896Z,15.60
2019-05-19T00:29:24.195Z,15.60
2019-05-19T00:30:28.976Z,15.60
2019-05-19T00:31:33.229Z,15.60
2019-05-19T00:32:38.001Z,15.60
2019-05-19T00:33:42.226Z,15.60
2019-05-19T00:34:47.006Z,15.60
2019-05-19T00:35:51.243Z,15.60
2019-05-19T00:36:56.016Z,15.60
2019-05-19T00:38:00.239Z,15.60
2019-05-19T00:39:06.112Z,15.50
2019-05-19T00:40:10.345Z,15.50
2019-05-19T00:41:15.110Z,15.50
2019-05-19T00:42:19.415Z,15.50
2019-05-19T00:43:24.198Z,15.60
2019-05-19T00:44:28.405Z,15.50
2019-05-19T00:45:33.142Z,15.50
2019-05-19T00:46:37.383Z,15.50
2019-05-19T00:47:42.181Z,15.50
2019-05-19T00:48:46.394Z,15.50
2019-05-19T00:49:51.170Z,15.50
2019-05-19T00:50:55.374Z,15.40
2019-05-19T00:52:00.208Z,15.40
2019-05-19T00:53:04.430Z,15.40
2019-05-19T00:54:09.207Z,15.40
2019-05-19T00:55:13.422Z,15.40
2019-05-19T00:56:18.227Z,15.40
2019-05-19T00:57:22.479Z,15.40
2019-05-19T00:58:27.286Z,15.30
2019-05-19T00:59:31.517Z,15.30
2019-05-19T01:00:36.295Z,15.30
2019-05-19T01:01:40.520Z,15.30
2019-05-19T01:02:45.334Z,15.30
2019-05-19T01:03:49.507Z,15.30
2019-05-19T01:04:54.271Z,15.30
2019-05-19T01:05:58.493Z,15.30
2019-05-19T01:07:03.308Z,15.30
2019-05-19T01:08:07.528Z,15.30
2019-05-19T01:09:12.308Z,15.30
2019-05-19T01:10:16.547Z,15.20
2019-05-19T01:11:21.363Z,15.20
2019-05-19T01:12:25.751Z,15.20
2019-05-19T01:13:30.514Z,15.20
2019-05-19T01:14:34.672Z,15.20
2019-05-19T01:15:39.452Z,15.20
2019-05-19T01:16:43.675Z,15.20
2019-05-19T01:17:48.488Z,15.20
2019-05-19T01:18:52.701Z,15.20
2019-05-19T01:19:57.476Z,15.20
2019-05-19T01:21:01.738Z,15.20
2019-05-19T01:22:06.499Z,15.20
2019-05-19T01:23:10.736Z,15.10
2019-05-19T01:24:15.512Z,15.10
2019-05-19T01:25:19.738Z,15.10
2019-05-19T01:26:24.515Z,15.10
2019-05-19T01:27:28.784Z,15.10
2019-05-19T01:28:33.538Z,15.10
2019-05-19T01:29:37.796Z,15.10
2019-05-19T01:30:42.571Z,15.10
2019-05-19T01:31:46.791Z,15.10
2019-05-19T01:32:51.590Z,15.10
2019-05-19T01:33:55.826Z,15.00
2019-05-19T01:35:00.598Z,15.00
2019-05-19T01:36:04.840Z,15.00
2019-05-19T01:37:09.611Z,15.00
2019-05-19T01:38:13.862Z,15.00
2019-05-19T01:39:18.639Z,15.00
2019-05-19T01:40:22.864Z,15.00
2019-05-19T01:41:27.664Z,15.00
2019-05-19T01:42:31.898Z,14.90
2019-05-19T01:43:36.628Z,14.90
2019-05-19T01:44:40.853Z,14.90
2019-05-19T01:45:45.651Z,14.90
2019-05-19T01:46:49.885Z,14.90
2019-05-19T01:47:54.684Z,14.90
2019-05-19T01:48:58.890Z,14.80
2019-05-19T01:50:17.120Z,14.90
2019-05-19T01:51:09.612Z,14.80
2019-05-19T01:52:14.378Z,14.80
2019-05-19T01:53:18.636Z,14.80
2019-05-19T01:54:23.415Z,14.80
2019-05-19T01:55:27.643Z,14.80
2019-05-19T01:56:32.423Z,14.80
2019-05-19T01:57:36.720Z,14.80
2019-05-19T01:58:41.459Z,14.80
2019-05-19T01:59:45.667Z,14.80
2019-05-19T02:00:50.452Z,14.80
2019-05-19T02:01:54.667Z,14.80
2019-05-19T02:02:59.587Z,14.80
2019-05-19T02:04:03.818Z,14.70
2019-05-19T02:05:09.191Z,14.70
2019-05-19T02:06:13.420Z,14.70
2019-05-19T02:07:18.199Z,14.70
2019-05-19T02:08:22.454Z,14.70
2019-05-19T02:09:27.234Z,14.70
2019-05-19T02:10:31.449Z,14.70
2019-05-19T02:11:36.238Z,14.70
2019-05-19T02:12:40.452Z,14.70
2019-05-19T02:13:45.263Z,14.70
2019-05-19T02:14:49.495Z,14.70
2019-05-19T02:15:54.260Z,14.70
2019-05-19T02:16:58.496Z,14.70
2019-05-19T02:18:03.298Z,14.60
2019-05-19T02:19:07.575Z,14.60
2019-05-19T02:20:12.360Z,14.60
2019-05-19T02:21:16.603Z,14.60
2019-05-19T02:22:21.383Z,14.60
2019-05-19T02:23:25.634Z,14.60
2019-05-19T02:24:30.423Z,14.60
2019-05-19T02:25:34.665Z,14.60
2019-05-19T02:26:39.430Z,14.60
2019-05-19T02:27:43.646Z,14.60
2019-05-19T02:28:48.471Z,14.60
2019-05-19T02:29:52.692Z,14.60
2019-05-19T02:30:57.482Z,14.60
2019-05-19T02:32:01.683Z,14.50
2019-05-19T02:33:06.459Z,14.50
2019-05-19T02:34:10.790Z,14.50
2019-05-19T02:35:15.890Z,14.50
2019-05-19T02:36:20.104Z,14.50
2019-05-19T02:37:24.911Z,14.50
2019-05-19T02:38:29.101Z,14.50
2019-05-19T02:39:34.022Z,14.50
2019-05-19T02:40:39.846Z,14.50
2019-05-19T02:41:44.647Z,14.40
2019-05-19T02:42:48.888Z,14.40
2019-05-19T02:43:53.720Z,14.40
2019-05-19T02:44:58.000Z,14.40
2019-05-19T02:46:02.763Z,14.40
2019-05-19T02:47:07.004Z,14.40
2019-05-19T02:48:12.795Z,14.40
2019-05-19T02:49:17.378Z,14.40
2019-05-19T02:50:22.082Z,14.40
2019-05-19T02:51:26.317Z,14.40
2019-05-19T02:52:31.097Z,14.40
2019-05-19T02:53:35.316Z,14.40
2019-05-19T02:54:40.135Z,14.40
2019-05-19T02:55:44.346Z,14.40
2019-05-19T02:56:49.045Z,14.40
2019-05-19T02:57:53.264Z,14.40
2019-05-19T02:58:58.077Z,14.40
2019-05-19T03:00:02.434Z,14.40
2019-05-19T03:01:07.311Z,14.40
2019-05-19T03:02:13.135Z,14.40
2019-05-19T03:03:17.903Z,14.40
2019-05-19T03:04:22.147Z,14.30
2019-05-19T03:05:26.964Z,14.30
2019-05-19T03:06:31.179Z,14.30
2019-05-19T03:07:35.956Z,14.30
2019-05-19T03:08:40.168Z,14.30
2019-05-19T03:09:45.015Z,14.30
2019-05-19T03:10:49.227Z,14.30
2019-05-19T03:11:54.986Z,14.30
2019-05-19T03:12:59.157Z,14.30
2019-05-19T03:14:03.944Z,14.30
2019-05-19T03:15:08.250Z,14.30
2019-05-19T03:16:13.025Z,14.30
2019-05-19T03:17:17.245Z,14.30
2019-05-19T03:18:22.028Z,14.30
2019-05-19T03:19:26.284Z,14.30
2019-05-19T03:20:31.057Z,14.30
2019-05-19T03:21:35.284Z,14.30
2019-05-19T03:22:40.078Z,14.30
2019-05-19T03:23:44.304Z,14.20
2019-05-19T03:24:49.095Z,14.20
2019-05-19T03:25:53.408Z,14.20
2019-05-19T03:26:58.179Z,14.20
2019-05-19T03:28:02.399Z,14.20
2019-05-19T03:29:07.379Z,14.20
2019-05-19T03:30:46.001Z,14.20
2019-05-19T03:31:56.980Z,14.20
2019-05-19T03:33:02.862Z,14.20
2019-05-19T03:34:07.074Z,14.20
2019-05-19T03:35:11.896Z,14.20
2019-05-19T03:36:16.117Z,14.20
2019-05-19T03:37:20.901Z,14.20
2019-05-19T03:38:25.111Z,14.10
2019-05-19T03:39:29.891Z,14.10
2019-05-19T03:40:34.139Z,14.20
2019-05-19T03:41:38.915Z,14.20
2019-05-19T03:42:43.144Z,14.10
2019-05-19T03:43:47.917Z,14.10
2019-05-19T03:44:52.197Z,14.10
2019-05-19T03:45:56.987Z,14.10
2019-05-19T03:47:01.273Z,14.10
2019-05-19T03:48:06.224Z,14.10
2019-05-19T03:49:10.447Z,14.10
2019-05-19T03:50:15.266Z,14.10
2019-05-19T03:51:30.254Z,14.10
2019-05-19T03:52:25.827Z,14.10
2019-05-19T03:53:30.056Z,14.10
2019-05-19T03:54:34.816Z,14.10
2019-05-19T03:55:39.059Z,14.10
2019-05-19T03:56:43.839Z,14.10
2019-05-19T03:57:48.050Z,14.10
2019-05-19T03:58:52.823Z,14.10
2019-05-19T03:59:57.042Z,14.10
2019-05-19T04:01:01.845Z,14.10
2019-05-19T04:02:06.073Z,14.10
2019-05-19T04:03:10.843Z,14.10
2019-05-19T04:04:15.063Z,14.10
2019-05-19T04:05:19.863Z,14.10
2019-05-19T04:06:24.080Z,14.10
2019-05-19T04:07:28.858Z,14.10
2019-05-19T04:08:33.091Z,14.10
2019-05-19T04:09:37.855Z,14.10
2019-05-19T04:10:42.139Z,14.10
2019-05-19T04:11:46.919Z,14.10
2019-05-19T04:12:51.138Z,14.20
2019-05-19T04:13:55.921Z,14.20
2019-05-19T04:15:00.119Z,14.20
2019-05-19T04:16:04.928Z,14.20
2019-05-19T04:17:09.143Z,14.20
2019-05-19T04:18:13.915Z,14.20
2019-05-19T04:19:18.137Z,14.30
2019-05-19T04:20:22.910Z,14.30
2019-05-19T04:21:27.159Z,14.30
2019-05-19T04:22:31.949Z,14.30
2019-05-19T04:23:36.171Z,14.30
2019-05-19T04:24:44.792Z,14.30
2019-05-19T04:25:49.043Z,14.30
2019-05-19T04:26:53.835Z,14.30
2019-05-19T04:27:58.069Z,14.30
2019-05-19T04:29:02.840Z,14.40
2019-05-19T04:30:07.111Z,14.40
2019-05-19T04:31:12.010Z,14.40
2019-05-19T04:32:16.219Z,14.40
2019-05-19T04:33:20.986Z,14.40
2019-05-19T04:34:25.210Z,14.40
2019-05-19T04:35:29.984Z,14.40
2019-05-19T04:36:34.230Z,14.40
2019-05-19T04:37:38.999Z,14.50
2019-05-19T04:38:43.219Z,14.50
2019-05-19T04:39:48.007Z,14.50
2019-05-19T04:40:52.264Z,14.50
2019-05-19T04:41:57.043Z,14.60
2019-05-19T04:43:01.286Z,14.60
2019-05-19T04:44:06.248Z,14.60
2019-05-19T04:45:10.498Z,14.60
2019-05-19T04:46:15.320Z,14.60
2019-05-19T04:47:19.531Z,14.60
2019-05-19T04:48:24.358Z,14.60
2019-05-19T04:49:28.616Z,14.60
2019-05-19T04:50:33.413Z,14.60
2019-05-19T04:51:37.650Z,14.70
2019-05-19T04:52:42.495Z,14.70
2019-05-19T04:53:46.743Z,14.70
2019-05-19T04:54:51.529Z,14.80
2019-05-19T04:55:55.740Z,14.80
2019-05-19T04:57:00.547Z,14.80
2019-05-19T04:58:04.769Z,14.80
2019-05-19T04:59:09.539Z,14.90
2019-05-19T05:00:13.760Z,14.90
2019-05-19T05:01:18.575Z,14.90
2019-05-19T05:02:22.847Z,15.00
2019-05-19T05:03:27.627Z,15.00
2019-05-19T05:04:31.848Z,15.00
2019-05-19T05:05:36.623Z,15.10
2019-05-19T05:06:40.873Z,15.10
2019-05-19T05:07:45.649Z,15.10
2019-05-19T05:08:49.863Z,15.20
2019-05-19T05:09:54.644Z,15.20
2019-05-19T05:10:58.865Z,15.20
2019-05-19T05:12:03.691Z,15.30
2019-05-19T05:13:07.914Z,15.30
2019-05-19T05:14:12.716Z,15.30
2019-05-19T05:15:16.981Z,15.40
2019-05-19T05:16:21.724Z,15.40
2019-05-19T05:17:25.986Z,15.40
2019-05-19T05:18:30.755Z,15.50
2019-05-19T05:19:34.966Z,15.50
2019-05-19T05:20:39.751Z,15.50
2019-05-19T05:21:43.999Z,15.60
2019-05-19T05:22:48.766Z,15.60
2019-05-19T05:23:53.867Z,15.70
2019-05-19T05:24:58.850Z,15.80
2019-05-19T05:26:03.075Z,15.90
2019-05-19T05:27:07.898Z,16.00
2019-05-19T05:28:12.121Z,16.00
2019-05-19T05:29:17.015Z,16.10
2019-05-19T05:30:21.326Z,16.30
2019-05-19T05:31:26.144Z,16.40
2019-05-19T05:32:30.390Z,16.60
2019-05-19T05:33:35.167Z,16.90
2019-05-19T05:34:39.390Z,17.20
2019-05-19T05:35:44.092Z,17.40
2019-05-19T05:36:48.319Z,17.60
2019-05-19T05:37:53.147Z,17.90
2019-05-19T05:38:57.374Z,17.90
2019-05-19T05:40:02.150Z,17.90
2019-05-19T05:41:06.378Z,17.90
2019-05-19T05:42:12.228Z,17.90
2019-05-19T05:43:16.456Z,17.90
2019-05-19T05:44:21.267Z,17.90
2019-05-19T05:45:25.503Z,17.80
2019-05-19T05:46:30.294Z,17.80
2019-05-19T05:47:34.563Z,17.70
2019-05-19T05:48:39.338Z,17.70
2019-05-19T05:49:43.562Z,17.60
2019-05-19T05:50:48.339Z,17.60
2019-05-19T05:51:52.553Z,17.60
2019-05-19T05:52:57.351Z,17.60
2019-05-19T05:54:01.569Z,17.60
2019-05-19T05:55:06.387Z,17.60
2019-05-19T05:56:10.618Z,17.50
2019-05-19T05:57:15.386Z,17.50
2019-05-19T05:58:19.642Z,17.60
2019-05-19T05:59:24.422Z,17.60
2019-05-19T06:00:28.649Z,17.60
2019-05-19T06:01:33.427Z,17.60
2019-05-19T06:02:37.816Z,17.60
2019-05-19T06:03:42.597Z,17.70
2019-05-19T06:04:46.842Z,17.80
2019-05-19T06:05:51.625Z,17.90
2019-05-19T06:06:55.896Z,17.90
2019-05-19T06:08:00.719Z,18.00
2019-05-19T06:09:06.204Z,18.10
2019-05-19T06:10:11.022Z,18.20
2019-05-19T06:11:15.259Z,18.30
2019-05-19T06:12:20.130Z,18.40
2019-05-19T06:13:24.547Z,18.40
2019-05-19T06:14:29.340Z,18.50
2019-05-19T06:15:33.641Z,18.60
2019-05-19T06:16:38.445Z,18.60
2019-05-19T06:17:42.711Z,18.70
2019-05-19T06:18:47.471Z,18.70
2019-05-19T06:19:51.666Z,18.70
2019-05-19T06:20:56.432Z,18.80
2019-05-19T06:22:00.663Z,18.80
2019-05-19T06:23:05.483Z,18.90
2019-05-19T06:24:09.698Z,19.00
2019-05-19T06:25:14.587Z,19.10
2019-05-19T06:26:18.819Z,19.20
2019-05-19T06:27:23.592Z,19.40
2019-05-19T06:28:27.948Z,19.60
2019-05-19T06:29:32.772Z,19.80
2019-05-19T06:30:37.004Z,20.00
2019-05-19T06:31:41.772Z,20.00
2019-05-19T06:32:49.278Z,20.10
2019-05-19T06:33:54.034Z,20.10
2019-05-19T06:34:58.272Z,20.10
2019-05-19T06:36:03.067Z,20.10
2019-05-19T06:37:07.296Z,20.10
2019-05-19T06:38:12.128Z,20.20
2019-05-19T06:39:16.571Z,20.20
2019-05-19T06:40:21.347Z,20.20
2019-05-19T06:41:25.758Z,20.20
2019-05-19T06:42:30.548Z,20.30
2019-05-19T06:43:34.851Z,20.30
2019-05-19T06:44:40.072Z,20.30
2019-05-19T06:45:44.359Z,20.30
2019-05-19T06:46:49.238Z,20.30
2019-05-19T06:47:53.484Z,20.30
2019-05-19T06:48:58.513Z,20.30
2019-05-19T06:50:02.931Z,20.30
2019-05-19T06:51:07.752Z,20.30
2019-05-19T06:52:12.107Z,20.30
2019-05-19T06:53:16.927Z,20.20
2019-05-19T06:54:21.160Z,20.20
2019-05-19T06:55:25.980Z,20.20
2019-05-19T06:56:30.168Z,20.20
2019-05-19T06:57:34.951Z,20.30
2019-05-19T06:58:39.202Z,20.30
2019-05-19T06:59:43.994Z,20.20
2019-05-19T07:00:48.366Z,20.30
2019-05-19T07:01:53.300Z,20.30
2019-05-19T07:02:57.699Z,20.30
2019-05-19T07:04:02.518Z,20.30
2019-05-19T07:05:06.783Z,20.30
2019-05-19T07:06:11.604Z,20.40
2019-05-19T07:07:15.780Z,20.50
2019-05-19T07:08:20.748Z,20.50
2019-05-19T07:09:25.001Z,20.50
2019-05-19T07:10:29.827Z,20.50
2019-05-19T07:11:34.048Z,20.60
2019-05-19T07:12:38.829Z,20.70
2019-05-19T07:13:43.132Z,20.70
2019-05-19T07:14:47.922Z,20.80
2019-05-19T07:15:52.144Z,20.90
2019-05-19T07:16:56.960Z,20.90
2019-05-19T07:18:01.176Z,21.00
2019-05-19T07:19:05.992Z,21.00
2019-05-19T07:20:10.203Z,21.10
2019-05-19T07:21:14.990Z,21.10
2019-05-19T07:22:19.218Z,21.20
2019-05-19T07:23:28.306Z,21.20
2019-05-19T07:24:29.911Z,21.30
2019-05-19T07:25:34.683Z,21.30
2019-05-19T07:26:38.923Z,21.40
2019-05-19T07:27:43.700Z,21.40
2019-05-19T07:28:47.964Z,21.50
2019-05-19T07:29:52.744Z,21.70
2019-05-19T07:30:57.019Z,21.80
2019-05-19T07:32:01.795Z,21.80
2019-05-19T07:33:06.002Z,21.80
2019-05-19T07:34:10.819Z,21.80
2019-05-19T07:35:15.043Z,21.80
2019-05-19T07:36:19.862Z,21.80
2019-05-19T07:37:24.074Z,21.80
2019-05-19T07:38:28.839Z,21.80
2019-05-19T07:39:33.090Z,21.80
2019-05-19T07:40:37.864Z,21.80
2019-05-19T07:41:42.086Z,21.80
2019-05-19T07:42:46.866Z,21.80
2019-05-19T07:43:51.079Z,21.90
2019-05-19T07:44:56.056Z,21.90
2019-05-19T07:46:00.263Z,21.90
2019-05-19T07:47:05.051Z,22.00
2019-05-19T07:48:09.259Z,22.00
2019-05-19T07:49:14.047Z,21.90
2019-05-19T07:50:18.292Z,21.90
2019-05-19T07:51:23.068Z,21.90
2019-05-19T07:52:27.294Z,21.90
2019-05-19T07:53:42.631Z,22.00
2019-05-19T07:54:37.967Z,22.00
2019-05-19T07:55:42.739Z,22.00
2019-05-19T07:56:46.980Z,22.10
2019-05-19T07:57:51.828Z,22.10
2019-05-19T07:58:56.051Z,22.10
2019-05-19T08:00:00.906Z,22.10
2019-05-19T08:01:05.122Z,22.10
2019-05-19T08:02:09.895Z,22.20
2019-05-19T08:03:14.132Z,22.10
2019-05-19T08:04:18.926Z,22.10
2019-05-19T08:05:23.188Z,22.10
2019-05-19T08:06:27.984Z,22.10
2019-05-19T08:07:32.210Z,22.20
2019-05-19T08:08:36.979Z,22.30
2019-05-19T08:09:41.219Z,22.40
2019-05-19T08:10:46.274Z,22.50
2019-05-19T08:11:50.534Z,22.60
2019-05-19T08:12:55.423Z,22.70
2019-05-19T08:13:59.660Z,22.70
2019-05-19T08:15:04.647Z,22.90
2019-05-19T08:16:08.867Z,23.00
2019-05-19T08:17:13.631Z,23.30
2019-05-19T08:18:17.857Z,23.80
2019-05-19T08:19:22.643Z,24.30
2019-05-19T08:20:26.886Z,24.80
2019-05-19T08:21:31.676Z,25.30
2019-05-19T08:22:35.915Z,25.60
2019-05-19T08:23:40.712Z,25.70
2019-05-19T08:24:44.934Z,26.00
2019-05-19T08:25:49.883Z,26.40
2019-05-19T08:26:54.130Z,26.70
2019-05-19T08:28:07.364Z,27.00
2019-05-19T08:29:04.854Z,27.30
2019-05-19T08:30:09.646Z,27.60
2019-05-19T08:31:13.901Z,27.90
2019-05-19T08:32:18.684Z,28.30
2019-05-19T08:33:23.023Z,28.50
2019-05-19T08:34:27.964Z,28.90
2019-05-19T08:35:32.251Z,29.30
2019-05-19T08:36:37.009Z,29.80
2019-05-19T08:37:41.237Z,30.30
2019-05-19T08:38:46.049Z,30.60
2019-05-19T08:39:50.263Z,31.10
2019-05-19T08:40:55.135Z,31.60
2019-05-19T08:41:59.646Z,32.30
2019-05-19T08:43:04.455Z,32.90
2019-05-19T08:44:08.763Z,33.70
2019-05-19T08:45:13.587Z,34.40
2019-05-19T08:46:17.831Z,35.20
2019-05-19T08:47:22.616Z,36.00
2019-05-19T08:48:26.864Z,36.70
2019-05-19T08:49:31.683Z,36.50
2019-05-19T08:50:36.017Z,35.80
2019-05-19T08:51:40.886Z,35.10
2019-05-19T08:52:45.078Z,35.40
2019-05-19T08:53:49.845Z,35.50
2019-05-19T08:54:54.066Z,35.50
2019-05-19T08:55:58.889Z,35.20
2019-05-19T08:57:03.109Z,35.00
2019-05-19T08:58:07.882Z,34.80
2019-05-19T08:59:12.123Z,34.80
2019-05-19T09:00:16.900Z,35.10
2019-05-19T09:01:21.152Z,35.70
2019-05-19T09:02:25.931Z,36.40
2019-05-19T09:03:30.155Z,37.10
2019-05-19T09:04:35.217Z,37.90
2019-05-19T09:05:39.448Z,38.60
2019-05-19T09:06:44.286Z,39.00
2019-05-19T09:07:48.434Z,39.30
2019-05-19T09:08:53.207Z,39.80
2019-05-19T09:09:57.414Z,40.20
2019-05-19T09:11:02.237Z,40.70
2019-05-19T09:12:06.479Z,41.10
2019-05-19T09:13:11.266Z,41.20
2019-05-19T09:14:15.538Z,41.10
2019-05-19T09:15:20.327Z,41.20
2019-05-19T09:16:24.625Z,41.40
2019-05-19T09:17:29.441Z,41.20
2019-05-19T09:18:33.669Z,40.90
2019-05-19T09:19:38.433Z,41.00
2019-05-19T09:20:42.658Z,41.20
2019-05-19T09:21:47.488Z,41.50
2019-05-19T09:22:51.773Z,41.00
2019-05-19T09:23:56.675Z,40.20
2019-05-19T09:25:00.976Z,40.00
2019-05-19T09:26:05.749Z,39.40
2019-05-19T09:27:09.993Z,38.50
2019-05-19T09:28:14.777Z,37.80
2019-05-19T09:29:19.000Z,37.40
2019-05-19T09:30:23.784Z,36.90
2019-05-19T09:31:28.028Z,36.30
2019-05-19T09:32:32.882Z,35.80
2019-05-19T09:33:37.204Z,35.40
2019-05-19T09:34:41.968Z,35.40
2019-05-19T09:35:46.320Z,35.60
2019-05-19T09:36:51.124Z,36.10
2019-05-19T09:37:55.349Z,36.90
2019-05-19T09:39:00.122Z,37.70
2019-05-19T09:40:04.828Z,38.40
2019-05-19T09:41:09.594Z,38.80
2019-05-19T09:42:13.842Z,39.10
2019-05-19T09:43:18.615Z,39.20
2019-05-19T09:44:22.826Z,39.40
2019-05-19T09:45:27.669Z,39.70
2019-05-19T09:46:31.976Z,40.20
2019-05-19T09:47:37.101Z,40.80
2019-05-19T09:48:41.598Z,41.20
2019-05-19T09:49:46.458Z,41.60
2019-05-19T09:50:50.792Z,42.00
2019-05-19T09:51:55.612Z,41.90
2019-05-19T09:52:59.832Z,41.70
2019-05-19T09:54:04.612Z,41.90
2019-05-19T09:55:08.836Z,42.30
2019-05-19T09:56:13.609Z,42.30
2019-05-19T09:57:17.855Z,42.00
2019-05-19T09:58:22.633Z,41.80
2019-05-19T09:59:27.066Z,41.80
2019-05-19T10:00:32.052Z,42.00
2019-05-19T10:01:36.269Z,41.90
2019-05-19T10:02:41.073Z,42.10
2019-05-19T10:03:45.308Z,41.80
2019-05-19T10:04:50.092Z,41.60
2019-05-19T10:05:54.283Z,41.40
2019-05-19T10:06:59.268Z,41.80
2019-05-19T10:08:03.734Z,41.80
2019-05-19T10:09:11.901Z,41.40
2019-05-19T10:10:18.109Z,41.50
2019-05-19T10:11:52.806Z,41.00
2019-05-19T10:12:57.070Z,41.10
2019-05-19T10:14:02.004Z,41.50
2019-05-19T10:15:07.121Z,41.60
2019-05-19T10:16:11.912Z,41.90
2019-05-19T10:17:16.190Z,42.20
2019-05-19T10:18:20.976Z,42.30
2019-05-19T10:19:25.195Z,42.50
2019-05-19T10:20:29.962Z,42.60
2019-05-19T10:21:34.115Z,42.60
2019-05-19T10:22:38.927Z,42.60
2019-05-19T10:23:43.158Z,42.30
2019-05-19T10:25:03.800Z,41.40
2019-05-19T10:25:53.815Z,40.90
2019-05-19T10:26:58.617Z,40.60
2019-05-19T10:28:02.871Z,40.60
2019-05-19T10:29:07.656Z,40.30
2019-05-19T10:30:11.867Z,39.90
2019-05-19T10:31:16.666Z,40.20
2019-05-19T10:32:20.879Z,40.20
2019-05-19T10:33:25.695Z,39.90
2019-05-19T10:34:29.910Z,39.60
2019-05-19T10:35:34.704Z,38.80
2019-05-19T10:36:38.973Z,38.10
2019-05-19T10:37:43.798Z,37.30
2019-05-19T10:38:48.041Z,36.60
2019-05-19T10:39:52.807Z,36.00
2019-05-19T10:40:56.965Z,35.60
2019-05-19T10:42:01.897Z,35.30
2019-05-19T10:43:06.390Z,34.90
2019-05-19T10:44:11.180Z,35.30
2019-05-19T10:45:15.396Z,35.60
2019-05-19T10:46:20.190Z,35.80
2019-05-19T10:47:24.415Z,35.80
2019-05-19T10:48:29.384Z,35.70
2019-05-19T10:49:33.614Z,35.50
2019-05-19T10:50:38.388Z,35.30
2019-05-19T10:51:42.604Z,35.00
2019-05-19T10:52:47.420Z,34.70
2019-05-19T10:53:51.650Z,34.50
2019-05-19T10:54:56.419Z,34.20
2019-05-19T10:56:00.638Z,33.90
2019-05-19T10:57:05.424Z,33.80
2019-05-19T10:58:09.667Z,33.70
2019-05-19T10:59:14.738Z,33.30
2019-05-19T11:00:19.102Z,33.10
2019-05-19T11:01:23.873Z,33.50
2019-05-19T11:02:28.092Z,34.10
2019-05-19T11:03:32.921Z,34.70
2019-05-19T11:04:37.120Z,35.50
2019-05-19T11:05:42.804Z,36.40
2019-05-19T11:06:47.072Z,37.30
2019-05-19T11:07:51.838Z,38.00
2019-05-19T11:08:56.429Z,38.30
2019-05-19T11:10:01.198Z,38.40
2019-05-19T11:11:05.412Z,38.60
2019-05-19T11:12:10.246Z,38.80
2019-05-19T11:13:14.471Z,38.80
2019-05-19T11:14:19.262Z,38.80
2019-05-19T11:15:23.490Z,39.10
2019-05-19T11:16:28.268Z,39.20
2019-05-19T11:17:32.486Z,38.90
2019-05-19T11:18:37.289Z,38.60
2019-05-19T11:19:41.510Z,37.90
2019-05-19T11:20:46.278Z,37.60
2019-05-19T11:21:50.511Z,37.40
2019-05-19T11:22:55.280Z,37.30
2019-05-19T11:23:59.526Z,37.30
2019-05-19T11:25:04.336Z,37.40
2019-05-19T11:26:08.563Z,37.30
2019-05-19T11:27:13.348Z,37.40
2019-05-19T11:28:17.578Z,37.40
2019-05-19T11:29:22.376Z,37.00
2019-05-19T11:30:26.595Z,36.60
2019-05-19T11:31:31.454Z,35.90
2019-05-19T11:32:35.737Z,35.20
2019-05-19T11:33:40.560Z,34.60
2019-05-19T11:34:44.808Z,34.10
2019-05-19T11:35:49.606Z,33.90
2019-05-19T11:36:54.251Z,33.50
2019-05-19T11:37:59.175Z,33.10
2019-05-19T11:39:04.968Z,32.80
2019-05-19T11:40:09.775Z,32.40
2019-05-19T11:41:13.988Z,32.00
2019-05-19T11:42:18.765Z,31.70
2019-05-19T11:43:23.003Z,31.60
2019-05-19T11:44:27.822Z,31.50
2019-05-19T11:45:32.074Z,31.50
2019-05-19T11:46:36.852Z,31.60
2019-05-19T11:47:41.063Z,31.40
2019-05-19T11:48:45.859Z,31.10
2019-05-19T11:49:50.130Z,31.10
2019-05-19T11:50:54.915Z,31.10
2019-05-19T11:51:59.132Z,31.00
2019-05-19T11:53:04.129Z,30.80
2019-05-19T11:54:08.379Z,30.70
2019-05-19T11:55:13.155Z,30.60
2019-05-19T11:56:17.370Z,30.40
2019-05-19T11:57:22.141Z,30.40
2019-05-19T11:58:26.371Z,30.20
2019-05-19T11:59:31.178Z,30.10
2019-05-19T12:00:35.396Z,30.00
2019-05-19T12:01:40.177Z,30.00
2019-05-19T12:02:44.446Z,30.10
2019-05-19T12:03:49.235Z,30.10
2019-05-19T12:04:53.538Z,29.90
2019-05-19T12:05:58.293Z,29.80
2019-05-19T12:07:02.542Z,29.80
2019-05-19T12:08:07.300Z,29.60
2019-05-19T12:09:11.519Z,29.50
2019-05-19T12:10:16.323Z,29.60
2019-05-19T12:11:20.528Z,29.60
2019-05-19T12:12:25.376Z,29.60
2019-05-19T12:13:29.615Z,29.60
2019-05-19T12:14:34.414Z,29.50
2019-05-19T12:15:38.630Z,29.60
2019-05-19T12:16:43.468Z,29.40
2019-05-19T12:17:47.744Z,29.10
2019-05-19T12:18:52.514Z,29.00
2019-05-19T12:19:56.808Z,29.00
2019-05-19T12:21:01.574Z,29.10
2019-05-19T12:22:05.782Z,29.00
2019-05-19T12:23:10.548Z,28.90
2019-05-19T12:24:14.835Z,28.90
2019-05-19T12:25:19.637Z,28.70
2019-05-19T12:26:23.943Z,28.70
2019-05-19T12:27:28.724Z,28.70
2019-05-19T12:28:32.998Z,28.80
2019-05-19T12:29:37.711Z,28.70
2019-05-19T12:30:41.951Z,28.90
2019-05-19T12:31:46.772Z,29.00
2019-05-19T12:32:51.015Z,29.10
2019-05-19T12:33:55.808Z,28.90
2019-05-19T12:35:00.064Z,28.70
2019-05-19T12:36:04.820Z,28.50
2019-05-19T12:37:09.040Z,28.30
2019-05-19T12:38:13.811Z,28.20
2019-05-19T12:39:18.034Z,28.00
2019-05-19T12:40:22.929Z,27.90
2019-05-19T12:41:27.183Z,27.80
2019-05-19T12:42:31.964Z,27.90
2019-05-19T12:43:36.183Z,28.00
2019-05-19T12:44:40.972Z,28.20
2019-05-19T12:45:45.344Z,28.20
2019-05-19T12:46:50.088Z,28.30
2019-05-19T12:47:54.349Z,28.40
2019-05-19T12:48:59.127Z,28.50
2019-05-19T12:50:03.451Z,28.50
2019-05-19T12:51:08.387Z,28.50
2019-05-19T12:52:12.605Z,28.50
2019-05-19T12:53:17.379Z,28.50
2019-05-19T12:54:21.611Z,28.50
2019-05-19T12:55:26.405Z,28.50
2019-05-19T12:56:39.171Z,28.50
2019-05-19T12:57:37.039Z,28.50
2019-05-19T12:58:41.248Z,28.40
2019-05-19T12:59:46.018Z,28.50
2019-05-19T13:00:50.271Z,28.60
2019-05-19T13:01:55.039Z,28.70
2019-05-19T13:02:59.263Z,28.80
2019-05-19T13:04:04.039Z,28.90
2019-05-19T13:05:08.262Z,28.90
2019-05-19T13:06:13.059Z,29.00
2019-05-19T13:07:17.276Z,29.00
2019-05-19T13:08:22.048Z,29.00
2019-05-19T13:09:26.274Z,28.90
2019-05-19T13:10:31.084Z,28.80
2019-05-19T13:11:35.291Z,28.80
2019-05-19T13:12:40.077Z,28.80
2019-05-19T13:13:44.303Z,28.90
2019-05-19T13:14:49.079Z,28.90
2019-05-19T13:15:53.345Z,28.90
2019-05-19T13:16:58.112Z,28.70
2019-05-19T13:18:02.318Z,28.70
2019-05-19T13:19:07.083Z,28.80
2019-05-19T13:20:12.867Z,28.80
2019-05-19T13:21:17.613Z,28.80
2019-05-19T13:22:21.827Z,28.80
2019-05-19T13:23:26.602Z,28.80
2019-05-19T13:24:30.843Z,28.80
2019-05-19T13:25:35.644Z,28.80
2019-05-19T13:26:54.159Z,28.80
2019-05-19T13:27:46.364Z,28.70
2019-05-19T13:28:50.574Z,28.60
2019-05-19T13:29:55.344Z,28.50
2019-05-19T13:30:59.599Z,28.40
2019-05-19T13:32:04.367Z,28.30
2019-05-19T13:33:08.592Z,28.30
2019-05-19T13:34:13.363Z,28.20
2019-05-19T13:35:17.590Z,27.90
2019-05-19T13:36:22.383Z,27.80
2019-05-19T13:37:26.671Z,27.60
2019-05-19T13:38:31.354Z,27.50
2019-05-19T13:39:35.572Z,27.40
2019-05-19T13:40:40.381Z,27.30
2019-05-19T13:41:44.613Z,27.20
2019-05-19T13:42:49.387Z,27.10
2019-05-19T13:43:53.848Z,27.00
2019-05-19T13:44:58.619Z,27.00
2019-05-19T13:46:02.868Z,27.10
2019-05-19T13:47:07.675Z,27.00
2019-05-19T13:48:11.940Z,27.00
2019-05-19T13:49:16.699Z,27.00
2019-05-19T13:50:20.937Z,27.00
2019-05-19T13:51:25.734Z,26.90
2019-05-19T13:52:29.947Z,27.00